Time;durP1;ratioP1;P1;durP2;ratioP2;P2;SDS_P1;SDS_P2;PMS_P1;PMS_P2;Temp;Humidity;BMP_temperature;BMP_pressure;BME280_temperature;BME280_humidity;BME280_pressure;Samples;Min_cycle;Max_cycle;Signal;HPM_P1;HPM_P2
2021/12/31 00:00:15;;;;;;;4.80;4.40;;;13.20;99.90;;;;;;5064979;28;20229;-67
2021/12/31 00:02:40;;;;;;;6.07;5.43;;;13.20;99.90;;;;;;5054004;28;20563;-66
2021/12/31 00:05:07;;;;;;;7.37;5.70;;;13.20;99.90;;;;;;5067251;28;20194;-67
2021/12/31 00:07:33;;;;;;;6.63;5.17;;;13.20;99.90;;;;;;5068138;28;20658;-67
2021/12/31 00:10:00;;;;;;;5.40;4.90;;;13.20;99.90;;;;;;5073911;28;20181;-67
2021/12/31 00:12:27;;;;;;;7.20;5.73;;;13.30;99.90;;;;;;5075176;28;20225;-67
2021/12/31 00:14:52;;;;;;;8.57;7.00;;;13.20;99.90;;;;;;5075490;28;20225;-67
2021/12/31 00:17:18;;;;;;;8.57;6.60;;;13.20;99.90;;;;;;5058390;28;20227;-67
2021/12/31 00:19:45;;;;;;;6.43;5.83;;;13.10;99.90;;;;;;5066149;28;20200;-67
2021/12/31 00:24:53;;;;;;;6.97;6.27;;;13.10;99.90;;;;;;5052006;28;20205;-68
2021/12/31 00:27:18;;;;;;;16.40;10.90;;;13.10;99.90;;;;;;5073286;28;20290;-67
2021/12/31 00:29:44;;;;;;;13.07;8.67;;;13.00;99.90;;;;;;5077468;28;20822;-68
2021/12/31 00:32:10;;;;;;;9.67;7.33;;;13.10;99.90;;;;;;5074466;28;20218;-67
2021/12/31 00:34:35;;;;;;;9.23;8.23;;;13.10;99.90;;;;;;5078010;28;20194;-68
2021/12/31 00:37:01;;;;;;;14.17;8.90;;;13.00;99.90;;;;;;5075093;28;20205;-68
2021/12/31 00:39:27;;;;;;;8.63;7.77;;;13.00;99.90;;;;;;5076307;28;20232;-69
2021/12/31 00:41:52;;;;;;;7.73;7.03;;;13.10;99.90;;;;;;5075923;28;20234;-69
2021/12/31 00:44:18;;;;;;;7.80;7.13;;;13.10;99.90;;;;;;5075863;28;20330;-69
2021/12/31 00:46:44;;;;;;;9.07;8.27;;;13.10;99.90;;;;;;5075420;28;20184;-67
2021/12/31 00:49:10;;;;;;;9.40;8.40;;;13.10;99.90;;;;;;5077751;28;20192;-68
2021/12/31 00:51:35;;;;;;;8.93;8.03;;;13.10;99.90;;;;;;5073368;28;20244;-68
2021/12/31 00:54:01;;;;;;;8.33;7.53;;;13.10;99.90;;;;;;5076497;28;20347;-68
2021/12/31 00:56:26;;;;;;;8.30;7.50;;;13.20;99.90;;;;;;5074577;28;20191;-68
2021/12/31 00:58:52;;;;;;;11.90;8.30;;;13.20;99.90;;;;;;5076516;28;20267;-68
2021/12/31 01:01:20;;;;;;;10.10;7.83;;;13.20;99.90;;;;;;5072997;28;20196;-68
2021/12/31 01:03:47;;;;;;;10.80;9.13;;;13.30;99.90;;;;;;5072621;28;20666;-67
2021/12/31 01:06:13;;;;;;;9.67;7.77;;;13.40;99.90;;;;;;5077659;28;20278;-67
2021/12/31 01:08:39;;;;;;;8.17;7.40;;;13.40;99.90;;;;;;5048497;28;20201;-67
2021/12/31 01:11:05;;;;;;;7.73;6.93;;;13.50;99.90;;;;;;5066858;28;20247;-68
2021/12/31 01:13:56;;;;;;;9.63;6.97;;;13.50;99.90;;;;;;5056649;28;20243;-68
2021/12/31 01:16:19;;;;;;;8.43;7.17;;;13.40;99.90;;;;;;5070802;28;20269;-67
2021/12/31 01:21:20;;;;;;;7.50;6.80;;;13.40;99.90;;;;;;4994740;28;20247;-68
2021/12/31 01:23:47;;;;;;;7.60;6.90;;;13.40;99.90;;;;;;5055393;28;20230;-69
2021/12/31 01:26:13;;;;;;;7.67;6.93;;;13.50;99.90;;;;;;5064064;28;20204;-69
2021/12/31 01:28:38;;;;;;;7.93;7.07;;;13.50;99.90;;;;;;5053911;28;20209;-67
2021/12/31 01:31:04;;;;;;;5.90;5.43;;;13.40;99.90;;;;;;5065953;28;20329;-68
2021/12/31 01:33:30;;;;;;;6.43;5.87;;;13.40;99.90;;;;;;5044240;28;20683;-70
2021/12/31 01:35:56;;;;;;;6.90;6.23;;;13.30;99.90;;;;;;5053594;28;20204;-71
2021/12/31 01:38:21;;;;;;;7.27;6.37;;;13.30;99.90;;;;;;5063299;28;20224;-67
2021/12/31 01:40:49;;;;;;;6.83;5.83;;;13.30;99.90;;;;;;5078457;28;20189;-67
2021/12/31 01:43:15;;;;;;;7.00;6.30;;;13.30;99.90;;;;;;5074442;28;20181;-67
2021/12/31 01:45:54;;;;;;;7.10;6.40;;;13.20;99.90;;;;;;5071632;28;20207;-68
2021/12/31 01:50:52;;;;;;;6.10;5.47;;;13.20;99.90;;;;;;5068122;28;20203;-68
2021/12/31 01:53:21;;;;;;;6.50;5.23;;;13.20;99.90;;;;;;5073652;28;20256;-68
2021/12/31 01:55:49;;;;;;;7.47;5.67;;;13.30;99.90;;;;;;5067349;28;20191;-80
2021/12/31 01:58:18;;;;;;;6.43;4.47;;;13.30;99.90;;;;;;5064627;28;20221;-78
2021/12/31 02:00:46;;;;;;;5.63;5.13;;;13.30;99.90;;;;;;5073358;28;20205;-68
2021/12/31 02:03:12;;;;;;;5.07;4.67;;;13.30;99.90;;;;;;5077170;28;20205;-71
2021/12/31 02:05:38;;;;;;;6.10;5.60;;;13.30;99.90;;;;;;5066580;28;20196;-70
2021/12/31 02:08:05;;;;;;;5.97;5.10;;;13.30;99.90;;;;;;5057095;28;20258;-70
2021/12/31 02:10:30;;;;;;;6.00;5.40;;;13.30;99.90;;;;;;5057923;28;20229;-72
2021/12/31 02:12:57;;;;;;;4.90;4.40;;;13.30;99.90;;;;;;5067723;28;20236;-69
2021/12/31 02:15:24;;;;;;;5.20;4.70;;;13.20;99.90;;;;;;5069159;28;20246;-69
2021/12/31 02:17:50;;;;;;;4.97;3.80;;;13.30;99.90;;;;;;5076983;28;20243;-71
2021/12/31 02:20:17;;;;;;;6.67;4.97;;;13.30;99.90;;;;;;5067312;28;20662;-66
2021/12/31 02:22:50;;;;;;;6.63;5.03;;;13.30;99.90;;;;;;5049840;28;20704;-72
2021/12/31 02:25:18;;;;;;;5.50;5.00;;;13.10;99.90;;;;;;5067140;28;20196;-71
2021/12/31 02:27:43;;;;;;;5.87;5.37;;;13.10;99.90;;;;;;5075952;28;20208;-71
2021/12/31 02:30:10;;;;;;;8.43;5.47;;;13.00;99.90;;;;;;5055169;28;20201;-71
2021/12/31 02:32:36;;;;;;;5.40;4.90;;;13.00;99.90;;;;;;5063189;28;20212;-71
2021/12/31 02:35:02;;;;;;;7.00;5.40;;;13.10;99.90;;;;;;5073678;28;20272;-71
2021/12/31 02:37:29;;;;;;;8.73;6.00;;;13.10;99.90;;;;;;5072629;28;20599;-68
2021/12/31 02:39:54;;;;;;;6.23;5.63;;;13.10;99.90;;;;;;5075198;28;21620;-68
2021/12/31 02:42:20;;;;;;;9.43;5.13;;;13.10;99.90;;;;;;5069876;28;20295;-68
2021/12/31 02:44:45;;;;;;;6.87;6.07;;;13.10;99.90;;;;;;5071840;28;20216;-68
2021/12/31 02:47:11;;;;;;;10.97;5.97;;;13.10;99.90;;;;;;5061259;28;20267;-68
2021/12/31 02:49:39;;;;;;;8.03;5.63;;;13.20;99.90;;;;;;5069920;28;20196;-69
2021/12/31 02:52:13;;;;;;;6.13;5.60;;;13.10;99.90;;;;;;5069290;28;20277;-69
2021/12/31 02:54:43;;;;;;;7.27;6.00;;;13.20;99.90;;;;;;5073582;28;20191;-70
2021/12/31 02:57:09;;;;;;;7.33;5.73;;;13.10;99.90;;;;;;5073362;28;20296;-70
2021/12/31 02:59:35;;;;;;;7.33;6.43;;;13.20;99.90;;;;;;5075259;28;20320;-69
2021/12/31 03:02:03;;;;;;;6.17;5.63;;;13.10;99.90;;;;;;5068913;28;20257;-68
2021/12/31 03:04:30;;;;;;;6.60;5.97;;;13.20;99.90;;;;;;5063862;28;20712;-68
2021/12/31 03:06:57;;;;;;;6.57;5.93;;;13.20;99.90;;;;;;5072466;28;20307;-70
2021/12/31 03:09:24;;;;;;;6.17;5.67;;;13.20;99.90;;;;;;5075329;28;20195;-70
2021/12/31 03:11:57;;;;;;;7.07;6.47;;;13.20;99.90;;;;;;5073783;28;20444;-70
2021/12/31 03:14:24;;;;;;;8.40;6.87;;;13.10;99.90;;;;;;5061110;28;20239;-71
2021/12/31 03:16:50;;;;;;;8.37;6.37;;;13.10;99.90;;;;;;5078275;28;20216;-70
2021/12/31 03:19:16;;;;;;;10.37;7.13;;;13.10;99.90;;;;;;5068657;28;20204;-71
2021/12/31 03:21:42;;;;;;;7.40;6.80;;;13.10;99.90;;;;;;5064454;28;20976;-70
2021/12/31 03:24:07;;;;;;;7.33;6.63;;;13.10;99.90;;;;;;5074722;28;20185;-72
2021/12/31 03:26:34;;;;;;;7.57;6.87;;;13.10;99.90;;;;;;5072078;28;20208;-69
2021/12/31 03:29:00;;;;;;;8.93;8.03;;;13.10;99.90;;;;;;5061187;28;20185;-70
2021/12/31 03:31:26;;;;;;;8.67;7.87;;;13.10;99.90;;;;;;5080085;28;20732;-70
2021/12/31 03:33:51;;;;;;;8.47;7.67;;;13.10;99.90;;;;;;5067286;28;20301;-69
2021/12/31 03:36:17;;;;;;;10.80;7.53;;;13.10;99.90;;;;;;5066452;28;20303;-69
2021/12/31 03:38:42;;;;;;;8.63;7.77;;;13.10;99.90;;;;;;5055651;28;20218;-69
2021/12/31 03:41:08;;;;;;;9.67;8.30;;;13.10;99.90;;;;;;5079189;28;20269;-71
2021/12/31 03:43:33;;;;;;;7.87;7.07;;;13.10;99.90;;;;;;5071028;28;20201;-67
2021/12/31 03:45:59;;;;;;;8.23;7.43;;;13.10;99.90;;;;;;5074092;28;20227;-65
2021/12/31 03:48:24;;;;;;;7.53;6.50;;;13.20;99.90;;;;;;5075347;28;20208;-66
2021/12/31 03:50:50;;;;;;;7.90;7.20;;;13.20;99.90;;;;;;5076507;28;20204;-62
2021/12/31 03:53:16;;;;;;;9.50;8.47;;;13.20;99.90;;;;;;5066534;28;20211;-63
2021/12/31 03:55:42;;;;;;;8.07;7.27;;;13.20;99.90;;;;;;5075243;28;20205;-63
2021/12/31 03:58:07;;;;;;;8.27;7.53;;;13.30;99.90;;;;;;5074474;28;20574;-63
2021/12/31 04:00:34;;;;;;;8.23;6.73;;;13.20;99.90;;;;;;5078214;28;20190;-63
2021/12/31 04:03:07;;;;;;;8.67;7.87;;;13.20;99.90;;;;;;5075722;28;20251;-63
2021/12/31 04:05:33;;;;;;;12.17;8.30;;;13.20;99.90;;;;;;5076113;28;20192;-63
2021/12/31 04:07:59;;;;;;;8.37;7.57;;;13.20;99.90;;;;;;5066109;28;20211;-62
2021/12/31 04:10:25;;;;;;;9.30;7.20;;;13.30;99.90;;;;;;5077102;28;20694;-63
2021/12/31 04:12:51;;;;;;;12.23;7.50;;;13.20;99.90;;;;;;5075679;28;20299;-63
2021/12/31 04:15:17;;;;;;;8.30;7.50;;;13.10;99.90;;;;;;5076889;28;20338;-63
2021/12/31 04:17:43;;;;;;;8.43;7.57;;;13.10;99.90;;;;;;5074484;28;20219;-64
2021/12/31 04:20:18;;;;;;;8.20;7.40;;;13.10;99.90;;;;;;5078180;28;20190;-63
2021/12/31 04:22:51;;;;;;;7.40;6.70;;;13.00;99.90;;;;;;5073042;28;20296;-63
2021/12/31 04:25:17;;;;;;;9.23;7.00;;;13.00;99.90;;;;;;5076597;28;20713;-63
2021/12/31 04:27:42;;;;;;;9.77;7.17;;;13.00;99.90;;;;;;5074223;28;20201;-63
2021/12/31 04:30:08;;;;;;;8.37;7.00;;;13.00;99.90;;;;;;5078830;28;20212;-62
2021/12/31 04:32:34;;;;;;;9.03;6.73;;;13.00;99.90;;;;;;5072785;28;20194;-62
2021/12/31 04:34:59;;;;;;;8.00;7.17;;;13.00;99.90;;;;;;5078025;28;20204;-63
2021/12/31 04:37:25;;;;;;;8.10;7.33;;;13.00;99.90;;;;;;5074950;28;20318;-63
2021/12/31 04:39:51;;;;;;;9.93;6.63;;;12.90;99.90;;;;;;5078032;28;20212;-62
2021/12/31 04:42:16;;;;;;;6.87;6.27;;;12.90;99.90;;;;;;5074092;28;20200;-63
2021/12/31 04:44:42;;;;;;;7.57;6.77;;;12.90;99.90;;;;;;5077106;28;20180;-63
2021/12/31 04:47:08;;;;;;;6.83;6.20;;;12.90;99.90;;;;;;5074039;28;20206;-62
2021/12/31 04:49:33;;;;;;;6.90;6.30;;;12.90;99.90;;;;;;5075463;28;20711;-62
2021/12/31 04:51:59;;;;;;;8.00;6.30;;;12.90;99.90;;;;;;5072630;28;20195;-62
2021/12/31 04:54:24;;;;;;;7.60;5.20;;;12.90;99.90;;;;;;5076893;28;20191;-63
2021/12/31 04:56:53;;;;;;;6.80;6.10;;;12.90;99.90;;;;;;5063937;28;20288;-63
2021/12/31 04:59:19;;;;;;;6.67;6.07;;;12.90;99.90;;;;;;5054860;28;20205;-65
2021/12/31 05:01:45;;;;;;;5.43;5.03;;;12.90;99.90;;;;;;5064731;28;20200;-63
2021/12/31 05:04:10;;;;;;;5.20;4.80;;;12.90;99.90;;;;;;5078037;28;20705;-64
2021/12/31 05:06:37;;;;;;;5.53;5.03;;;12.90;99.90;;;;;;5075876;28;20228;-65
2021/12/31 05:09:03;;;;;;;4.83;4.43;;;13.00;99.90;;;;;;5074691;28;20205;-64
2021/12/31 05:11:29;;;;;;;4.63;4.20;;;13.00;99.90;;;;;;5075784;28;20204;-64
2021/12/31 05:13:54;;;;;;;4.70;4.30;;;13.00;99.90;;;;;;5075662;28;20210;-64
2021/12/31 05:16:19;;;;;;;4.57;4.20;;;13.00;99.90;;;;;;5078888;28;20228;-63
2021/12/31 05:18:45;;;;;;;5.37;4.07;;;13.00;99.90;;;;;;5051301;28;20227;-63
2021/12/31 05:21:10;;;;;;;5.00;4.57;;;13.00;99.90;;;;;;5066518;28;20694;-64
2021/12/31 05:23:36;;;;;;;5.50;4.90;;;13.00;99.90;;;;;;5054963;28;20246;-64
2021/12/31 05:26:01;;;;;;;3.47;3.17;;;13.00;99.90;;;;;;5066329;28;20399;-64
2021/12/31 05:28:27;;;;;;;4.57;4.13;;;13.10;99.90;;;;;;5054801;28;20210;-64
2021/12/31 05:30:52;;;;;;;3.60;3.30;;;13.10;99.90;;;;;;5066323;28;20502;-64
2021/12/31 05:33:18;;;;;;;3.93;3.63;;;13.10;99.90;;;;;;5054757;28;20213;-63
2021/12/31 05:35:43;;;;;;;5.13;3.93;;;13.10;99.90;;;;;;5066274;28;20772;-63
2021/12/31 05:38:09;;;;;;;4.10;3.77;;;13.10;99.90;;;;;;5052688;28;20313;-63
2021/12/31 05:40:34;;;;;;;3.63;3.33;;;13.10;99.90;;;;;;5064075;28;20216;-63
2021/12/31 05:43:00;;;;;;;3.80;3.50;;;13.10;99.90;;;;;;5053223;28;20206;-64
2021/12/31 05:45:26;;;;;;;4.17;3.73;;;13.10;99.90;;;;;;5065306;28;20267;-63
2021/12/31 05:47:51;;;;;;;4.27;3.87;;;13.10;99.90;;;;;;5054369;28;20212;-63
2021/12/31 05:50:29;;;;;;;4.63;3.30;;;13.10;99.90;;;;;;5065610;28;20194;-63
2021/12/31 05:52:58;;;;;;;3.13;2.83;;;13.10;99.90;;;;;;5044270;28;20207;-63
2021/12/31 05:55:24;;;;;;;3.53;3.23;;;13.10;99.90;;;;;;5066027;28;20224;-63
2021/12/31 05:57:50;;;;;;;4.10;3.70;;;13.10;99.90;;;;;;5054785;28;20246;-63
2021/12/31 06:00:16;;;;;;;3.60;3.27;;;13.10;99.90;;;;;;5065213;28;20233;-64
2021/12/31 06:02:42;;;;;;;3.50;3.30;;;13.20;99.90;;;;;;5063289;28;20900;-63
2021/12/31 06:05:08;;;;;;;3.50;3.30;;;13.20;99.90;;;;;;5065691;28;20294;-63
2021/12/31 06:07:33;;;;;;;3.97;3.60;;;13.20;99.90;;;;;;5063684;28;20294;-63
2021/12/31 06:09:59;;;;;;;3.40;3.10;;;13.20;99.90;;;;;;5060164;28;20193;-63
2021/12/31 06:12:24;;;;;;;3.90;3.60;;;13.20;99.90;;;;;;5057234;28;20201;-63
2021/12/31 06:14:54;;;;;;;3.70;3.40;;;13.10;99.90;;;;;;5057188;28;21028;-63
2021/12/31 06:17:25;;;;;;;4.60;4.30;;;13.20;99.90;;;;;;5061106;28;20207;-63
2021/12/31 06:19:52;;;;;;;4.57;3.93;;;13.20;99.90;;;;;;5057349;28;20223;-63
2021/12/31 06:22:19;;;;;;;3.97;3.67;;;13.20;99.90;;;;;;5063413;28;20224;-63
2021/12/31 06:24:44;;;;;;;3.67;3.47;;;13.20;99.90;;;;;;5050095;28;20193;-63
2021/12/31 06:27:09;;;;;;;3.97;3.70;;;13.20;99.90;;;;;;5059295;28;20220;-63
2021/12/31 06:29:35;;;;;;;3.87;3.60;;;13.20;99.90;;;;;;5052984;28;20193;-63
2021/12/31 06:32:00;;;;;;;4.30;3.90;;;13.20;99.90;;;;;;5055619;28;20193;-63
2021/12/31 06:34:26;;;;;;;4.20;3.90;;;13.20;99.90;;;;;;5061320;28;20189;-63
2021/12/31 06:36:51;;;;;;;4.47;4.10;;;13.20;99.90;;;;;;5062572;28;20216;-63
2021/12/31 06:39:17;;;;;;;4.30;4.00;;;13.20;99.90;;;;;;5065452;28;20195;-63
2021/12/31 06:41:42;;;;;;;4.53;3.87;;;13.20;99.90;;;;;;5064384;28;20643;-63
2021/12/31 06:44:08;;;;;;;3.50;3.30;;;13.10;99.90;;;;;;5049627;28;20254;-63
2021/12/31 06:46:33;;;;;;;5.87;4.03;;;13.20;99.90;;;;;;5063930;28;20225;-64
2021/12/31 06:48:59;;;;;;;5.33;3.83;;;13.10;99.90;;;;;;5053811;28;20223;-64
2021/12/31 06:51:25;;;;;;;5.43;4.37;;;13.10;99.90;;;;;;5064774;28;20750;-63
2021/12/31 06:53:50;;;;;;;4.67;4.30;;;13.10;99.90;;;;;;5055281;28;20209;-64
2021/12/31 06:56:16;;;;;;;3.97;3.67;;;13.10;99.90;;;;;;5058752;28;20266;-64
2021/12/31 06:58:43;;;;;;;6.43;3.97;;;13.10;99.90;;;;;;5051123;28;20216;-63
2021/12/31 07:01:09;;;;;;;4.80;4.30;;;13.20;99.90;;;;;;5066422;28;20208;-63
2021/12/31 07:03:34;;;;;;;4.50;4.10;;;13.10;99.90;;;;;;5054540;28;20212;-63
2021/12/31 07:06:00;;;;;;;4.37;4.07;;;13.10;99.90;;;;;;5065708;28;20283;-63
2021/12/31 07:08:25;;;;;;;4.80;4.30;;;13.10;99.90;;;;;;5051534;28;20290;-62
2021/12/31 07:10:51;;;;;;;4.53;4.13;;;13.10;99.90;;;;;;5064997;28;20671;-65
2021/12/31 07:13:16;;;;;;;4.53;4.13;;;13.10;99.90;;;;;;5053356;28;20207;-64
2021/12/31 07:15:47;;;;;;;3.80;3.43;;;13.10;99.90;;;;;;5068738;28;20226;-64
2021/12/31 07:18:13;;;;;;;5.93;4.10;;;13.10;99.90;;;;;;5054898;28;20557;-63
2021/12/31 07:20:38;;;;;;;5.53;4.17;;;13.10;99.90;;;;;;5061896;28;20187;-63
2021/12/31 07:23:09;;;;;;;4.33;3.97;;;13.10;99.90;;;;;;5055232;28;20210;-63
2021/12/31 07:25:35;;;;;;;3.83;3.40;;;13.10;99.90;;;;;;5068527;28;20566;-64
2021/12/31 07:28:01;;;;;;;3.70;3.50;;;13.10;99.90;;;;;;5056211;28;20292;-63
2021/12/31 07:30:27;;;;;;;3.60;3.30;;;13.20;99.90;;;;;;5067717;28;20955;-63
2021/12/31 07:32:52;;;;;;;3.83;3.53;;;13.20;99.90;;;;;;5056759;28;20217;-63
2021/12/31 07:35:19;;;;;;;3.77;3.47;;;13.20;99.90;;;;;;5064239;28;20209;-63
2021/12/31 07:37:44;;;;;;;4.83;4.13;;;13.20;99.90;;;;;;5065628;28;20264;-63
2021/12/31 07:40:12;;;;;;;3.97;3.50;;;13.10;99.90;;;;;;5066361;28;20193;-63
2021/12/31 07:42:38;;;;;;;3.77;3.47;;;13.20;99.90;;;;;;5065706;28;20226;-62
2021/12/31 07:45:04;;;;;;;3.87;3.57;;;13.20;99.90;;;;;;5055839;28;20220;-63
2021/12/31 07:47:30;;;;;;;2.90;2.70;;;13.10;99.90;;;;;;5066345;28;20201;-63
2021/12/31 07:49:55;;;;;;;3.33;3.03;;;13.20;99.90;;;;;;5059281;28;20651;-63
2021/12/31 07:52:21;;;;;;;3.67;3.10;;;13.20;99.90;;;;;;5061331;28;20197;-62
2021/12/31 07:54:47;;;;;;;4.93;3.80;;;13.20;99.90;;;;;;5063801;28;20194;-62
2021/12/31 07:57:12;;;;;;;3.60;3.30;;;13.20;99.90;;;;;;5062574;28;20210;-63
2021/12/31 07:59:37;;;;;;;4.07;3.47;;;13.20;99.90;;;;;;5058516;28;20207;-63
2021/12/31 08:02:03;;;;;;;5.73;3.50;;;13.20;99.90;;;;;;5065920;28;20682;-64
2021/12/31 08:04:29;;;;;;;3.60;3.30;;;13.30;99.90;;;;;;5055451;28;20632;-64
2021/12/31 08:06:54;;;;;;;3.40;3.10;;;13.30;99.90;;;;;;5064025;28;20656;-64
2021/12/31 08:09:20;;;;;;;3.60;3.30;;;13.30;99.90;;;;;;5059903;28;20323;-64
2021/12/31 08:11:45;;;;;;;3.33;3.07;;;13.30;99.90;;;;;;5064095;28;20518;-63
2021/12/31 08:14:11;;;;;;;3.50;3.10;;;13.30;99.90;;;;;;5054280;28;20189;-63
2021/12/31 08:16:36;;;;;;;5.77;2.73;;;13.30;99.90;;;;;;5067681;28;20194;-63
2021/12/31 08:19:02;;;;;;;4.60;3.10;;;13.30;99.90;;;;;;5055666;28;20231;-65
2021/12/31 08:21:28;;;;;;;2.90;2.70;;;13.30;99.90;;;;;;5059122;28;20204;-63
2021/12/31 08:23:53;;;;;;;5.97;2.77;;;13.30;99.90;;;;;;5066238;28;20567;-63
2021/12/31 08:26:19;;;;;;;3.30;2.43;;;13.30;99.90;;;;;;5066963;28;20199;-63
2021/12/31 08:28:44;;;;;;;2.70;2.50;;;13.30;99.90;;;;;;5053081;28;20209;-64
2021/12/31 08:31:10;;;;;;;2.17;2.07;;;13.30;99.90;;;;;;5068712;28;20307;-63
2021/12/31 08:33:35;;;;;;;2.90;2.70;;;13.30;99.90;;;;;;5056241;28;20222;-64
2021/12/31 08:36:01;;;;;;;6.17;3.47;;;13.40;99.90;;;;;;5067905;28;20749;-63
2021/12/31 08:38:26;;;;;;;2.03;1.93;;;13.40;99.90;;;;;;5064780;28;20216;-63
2021/12/31 08:40:52;;;;;;;3.93;2.17;;;13.40;99.90;;;;;;5066749;28;20200;-62
2021/12/31 08:43:18;;;;;;;2.17;1.97;;;13.40;99.90;;;;;;5052446;28;20211;-63
2021/12/31 08:45:44;;;;;;;2.40;2.20;;;13.40;99.90;;;;;;5066003;28;20264;-63
2021/12/31 08:48:09;;;;;;;2.50;2.30;;;13.40;99.90;;;;;;5056658;28;20199;-63
2021/12/31 08:50:35;;;;;;;2.67;2.37;;;13.40;99.90;;;;;;5071169;28;20242;-62
2021/12/31 08:53:03;;;;;;;5.23;1.73;;;13.50;99.90;;;;;;5060667;28;20196;-62
2021/12/31 08:55:28;;;;;;;2.27;2.07;;;13.50;99.90;;;;;;5068765;28;20196;-63
2021/12/31 08:57:55;;;;;;;2.80;2.10;;;13.50;99.90;;;;;;5065566;28;20290;-63
2021/12/31 09:00:21;;;;;;;2.33;2.03;;;13.40;99.90;;;;;;5067273;28;20193;-63
2021/12/31 09:02:49;;;;;;;2.37;2.00;;;13.40;99.90;;;;;;5057987;28;20202;-63
2021/12/31 09:05:15;;;;;;;4.50;2.67;;;13.50;99.90;;;;;;5066877;28;20191;-63
2021/12/31 09:07:41;;;;;;;2.13;2.03;;;13.50;99.90;;;;;;5065482;28;20198;-63
2021/12/31 09:10:08;;;;;;;2.70;2.27;;;13.50;99.90;;;;;;5066099;28;20269;-63
2021/12/31 09:12:34;;;;;;;2.13;1.80;;;13.50;99.90;;;;;;5065229;28;20228;-64
2021/12/31 09:14:59;;;;;;;2.20;2.10;;;13.60;99.90;;;;;;5061189;28;20774;-64
2021/12/31 09:17:25;;;;;;;1.63;1.63;;;13.50;99.90;;;;;;5066141;28;20194;-63
2021/12/31 09:19:51;;;;;;;1.93;1.83;;;13.60;99.90;;;;;;5058353;28;20567;-64
2021/12/31 09:22:17;;;;;;;3.57;1.80;;;13.60;99.90;;;;;;5064317;28;20660;-63
2021/12/31 09:24:42;;;;;;;2.77;2.57;;;13.50;99.90;;;;;;5051512;28;20185;-63
2021/12/31 09:27:12;;;;;;;2.53;2.00;;;13.60;99.90;;;;;;5060103;28;20535;-63
2021/12/31 09:29:37;;;;;;;3.13;1.77;;;13.60;99.90;;;;;;5057879;28;20240;-64
2021/12/31 09:32:03;;;;;;;2.90;1.60;;;13.60;99.90;;;;;;5060830;28;20754;-65
2021/12/31 09:34:28;;;;;;;5.33;1.97;;;13.50;99.90;;;;;;5055587;28;20285;-64
2021/12/31 09:36:54;;;;;;;1.93;1.73;;;13.60;99.90;;;;;;5061458;28;20210;-64
2021/12/31 09:39:19;;;;;;;2.10;1.77;;;13.60;99.90;;;;;;5058073;28;20567;-64
2021/12/31 09:41:45;;;;;;;4.50;2.10;;;13.70;99.90;;;;;;5068236;28;20189;-64
2021/12/31 09:44:15;;;;;;;2.07;1.90;;;13.70;99.90;;;;;;5047215;28;20235;-65
2021/12/31 09:46:41;;;;;;;3.07;1.73;;;13.70;99.90;;;;;;5071553;28;20236;-63
2021/12/31 09:49:07;;;;;;;1.53;1.43;;;13.70;99.90;;;;;;5074011;28;20226;-63
2021/12/31 09:51:34;;;;;;;3.47;1.50;;;13.70;99.90;;;;;;5065444;28;20224;-63
2021/12/31 09:54:00;;;;;;;1.77;1.67;;;13.70;99.90;;;;;;5070917;28;20196;-64
2021/12/31 09:56:26;;;;;;;3.70;1.50;;;13.80;99.90;;;;;;5075855;28;20715;-64
2021/12/31 09:58:52;;;;;;;2.07;1.60;;;13.70;99.90;;;;;;5074041;28;20219;-64
2021/12/31 10:01:18;;;;;;;3.13;1.33;;;13.90;99.90;;;;;;5075603;28;20187;-63
2021/12/31 10:03:57;;;;;;;1.93;1.80;;;13.90;99.90;;;;;;5074526;28;20195;-63
2021/12/31 10:06:24;;;;;;;1.60;1.40;;;13.90;99.90;;;;;;5073763;28;20199;-63
2021/12/31 10:08:50;;;;;;;5.03;2.23;;;13.90;99.90;;;;;;5072523;28;20952;-64
2021/12/31 10:11:23;;;;;;;5.90;1.77;;;13.80;99.90;;;;;;5075283;28;20240;-63
2021/12/31 10:13:51;;;;;;;1.63;1.50;;;13.90;99.90;;;;;;5074467;28;20190;-63
2021/12/31 10:16:27;;;;;;;2.53;1.40;;;13.90;99.90;;;;;;5076766;28;20313;-63
2021/12/31 10:19:18;;;;;;;1.97;1.60;;;13.90;99.90;;;;;;5073554;28;20568;-65
2021/12/31 10:21:46;;;;;;;1.53;1.40;;;14.00;99.90;;;;;;5072767;28;20560;-64
2021/12/31 10:24:43;;;;;;;2.30;1.70;;;13.90;99.90;;;;;;5072500;28;20180;-63
2021/12/31 10:27:10;;;;;;;1.40;1.30;;;13.90;99.90;;;;;;5076974;28;20200;-63
2021/12/31 10:29:54;;;;;;;1.83;1.73;;;13.90;99.90;;;;;;5079535;28;21006;-64
2021/12/31 10:32:23;;;;;;;4.90;3.30;;;13.90;99.90;;;;;;5077361;28;20732;-63
2021/12/31 10:34:49;;;;;;;6.40;3.93;;;13.90;99.90;;;;;;5079742;28;20190;-63
2021/12/31 10:37:19;;;;;;;4.37;2.53;;;13.90;99.90;;;;;;5080926;28;20569;-64
2021/12/31 10:39:53;;;;;;;2.23;1.77;;;13.90;99.90;;;;;;5078522;28;20209;-63
2021/12/31 10:42:19;;;;;;;2.10;1.47;;;13.90;99.90;;;;;;5074913;28;20204;-63
2021/12/31 10:44:48;;;;;;;3.17;1.93;;;13.80;99.90;;;;;;5075835;28;20185;-64
2021/12/31 10:47:19;;;;;;;3.73;1.90;;;13.80;99.90;;;;;;5073408;28;20212;-63
2021/12/31 10:50:00;;;;;;;3.67;1.93;;;13.70;99.90;;;;;;5074896;28;20198;-63
2021/12/31 10:52:53;;;;;;;2.43;1.60;;;13.70;99.90;;;;;;5072886;28;20202;-62
2021/12/31 10:55:25;;;;;;;1.87;1.50;;;13.70;99.90;;;;;;5074771;28;20201;-62
2021/12/31 10:57:54;;;;;;;2.00;1.27;;;13.70;99.90;;;;;;5068885;28;20298;-61
2021/12/31 11:00:22;;;;;;;1.43;1.30;;;13.60;99.90;;;;;;5065099;28;20670;-61
2021/12/31 11:02:48;;;;;;;1.57;1.30;;;13.60;99.90;;;;;;5073554;28;20568;-61
2021/12/31 11:05:16;;;;;;;3.70;2.43;;;13.70;99.90;;;;;;5075278;28;20235;-61
2021/12/31 11:07:43;;;;;;;2.60;1.60;;;13.70;99.90;;;;;;5064183;28;20556;-61
2021/12/31 11:10:09;;;;;;;6.43;1.40;;;13.70;99.90;;;;;;5063010;28;20262;-61
2021/12/31 11:12:43;;;;;;;2.30;1.30;;;13.80;99.90;;;;;;5060813;28;20209;-62
2021/12/31 11:15:09;;;;;;;2.03;1.43;;;13.80;99.90;;;;;;5057497;28;20237;-61
2021/12/31 11:17:36;;;;;;;3.33;1.47;;;13.90;99.90;;;;;;5059520;28;20205;-59
2021/12/31 11:20:04;;;;;;;1.50;1.10;;;13.90;99.90;;;;;;5050774;28;20618;-67
2021/12/31 11:22:31;;;;;;;2.10;1.47;;;13.80;99.90;;;;;;5064190;28;20201;-74
2021/12/31 11:25:29;;;;;;;4.70;2.10;;;13.80;99.90;;;;;;5071225;28;20211;-67
2021/12/31 11:27:56;;;;;;;5.83;1.50;;;13.90;99.90;;;;;;5048036;28;20544;-69
2021/12/31 11:30:31;;;;;;;0.87;0.87;;;13.90;99.90;;;;;;5044304;28;20641;-69
2021/12/31 11:33:00;;;;;;;1.70;1.60;;;13.90;99.90;;;;;;5057335;28;20212;-66
2021/12/31 11:35:42;;;;;;;1.40;1.30;;;13.90;99.90;;;;;;5052130;28;20645;-68
2021/12/31 11:38:28;;;;;;;2.80;2.00;;;14.00;99.90;;;;;;5055537;28;20707;-67
2021/12/31 11:41:03;;;;;;;1.50;1.40;;;14.00;99.90;;;;;;5040775;28;20202;-68
2021/12/31 11:43:30;;;;;;;2.30;1.70;;;14.00;99.90;;;;;;5059089;28;20288;-67
2021/12/31 11:46:21;;;;;;;1.97;1.53;;;14.10;99.90;;;;;;5052501;28;20190;-67
2021/12/31 11:48:52;;;;;;;1.30;1.20;;;14.00;99.90;;;;;;5056130;28;20287;-70
2021/12/31 11:51:18;;;;;;;2.63;1.10;;;14.00;99.90;;;;;;5060118;28;20218;-68
2021/12/31 11:53:56;;;;;;;2.13;1.10;;;14.00;99.90;;;;;;5057204;28;20206;-69
2021/12/31 11:56:36;;;;;;;1.40;1.30;;;14.00;99.90;;;;;;5056090;28;20186;-69
2021/12/31 11:59:08;;;;;;;8.37;4.07;;;14.00;99.90;;;;;;5062189;28;20214;-68
2021/12/31 12:01:36;;;;;;;1.43;1.20;;;14.00;99.90;;;;;;5067952;28;20196;-68
2021/12/31 12:04:35;;;;;;;4.33;2.20;;;14.00;99.90;;;;;;5058725;28;20209;-69
2021/12/31 12:07:06;;;;;;;2.93;1.50;;;13.90;99.90;;;;;;5067144;28;20189;-73
2021/12/31 12:09:38;;;;;;;3.57;1.83;;;13.90;99.90;;;;;;5060621;28;20362;-71
2021/12/31 12:12:13;;;;;;;1.40;1.20;;;13.90;99.90;;;;;;5054578;28;20229;-71
2021/12/31 12:14:47;;;;;;;1.60;1.50;;;13.90;99.90;;;;;;5058324;28;20349;-71
2021/12/31 12:17:15;;;;;;;3.77;1.70;;;13.80;99.90;;;;;;5050829;28;20212;-72
2021/12/31 12:19:46;;;;;;;2.83;2.20;;;13.80;99.90;;;;;;5067386;28;20217;-72
2021/12/31 12:22:38;;;;;;;4.30;1.90;;;13.80;99.90;;;;;;5053956;28;20206;-72
2021/12/31 12:25:11;;;;;;;2.10;1.60;;;13.90;99.90;;;;;;5060236;28;20201;-76
2021/12/31 12:27:40;;;;;;;1.73;1.60;;;14.00;99.90;;;;;;5066010;28;20193;-71
2021/12/31 12:30:08;;;;;;;2.37;1.30;;;14.00;99.90;;;;;;5064716;28;20205;-71
2021/12/31 12:32:37;;;;;;;2.50;1.20;;;14.10;99.90;;;;;;5062798;28;20202;-71
2021/12/31 12:35:24;;;;;;;1.30;1.20;;;14.10;99.90;;;;;;5064588;28;20225;-72
2021/12/31 12:38:04;;;;;;;2.40;1.10;;;14.10;99.90;;;;;;5053790;28;20197;-72
2021/12/31 12:40:54;;;;;;;2.97;1.40;;;14.10;99.90;;;;;;5055448;28;20204;-71
2021/12/31 12:43:30;;;;;;;1.13;1.13;;;14.10;99.90;;;;;;5070638;28;20190;-72
2021/12/31 12:45:57;;;;;;;1.40;1.30;;;14.10;99.90;;;;;;5057551;28;20228;-71
2021/12/31 12:48:42;;;;;;;1.30;1.20;;;14.10;99.90;;;;;;5059500;28;20179;-71
2021/12/31 12:51:13;;;;;;;2.10;1.23;;;14.20;99.90;;;;;;5063346;28;20202;-75
2021/12/31 12:53:48;;;;;;;2.40;1.50;;;14.10;99.90;;;;;;5067309;28;20307;-74
2021/12/31 12:56:16;;;;;;;1.30;1.20;;;14.10;99.90;;;;;;5054691;28;20288;-73